createdAt,value
2019-03-01T00:01:15.938Z,1.80
2019-03-01T00:03:49.812Z,1.78
2019-03-01T00:06:32.271Z,1.75
2019-03-01T00:09:22.428Z,1.77
2019-03-01T00:12:12.860Z,1.76
2019-03-01T00:14:52.257Z,1.77
2019-03-01T00:17:38.082Z,1.77
2019-03-01T00:20:43.688Z,1.74
2019-03-01T00:23:26.173Z,1.71
2019-03-01T00:26:06.052Z,1.67
2019-03-01T00:28:51.800Z,1.69
2019-03-01T00:31:31.723Z,1.70
2019-03-01T00:34:16.869Z,1.70
2019-03-01T00:36:50.806Z,1.70
2019-03-01T00:39:36.478Z,1.71
2019-03-01T00:42:27.752Z,1.71
2019-03-01T00:44:58.667Z,1.72
2019-03-01T00:47:31.280Z,1.74
2019-03-01T00:50:02.225Z,1.78
2019-03-01T00:52:33.118Z,1.82
2019-03-01T00:55:05.418Z,1.87
2019-03-01T00:57:36.352Z,1.91
2019-03-01T01:00:10.158Z,1.95
2019-03-01T01:02:41.099Z,1.98
2019-03-01T01:05:12.003Z,1.98
2019-03-01T01:07:42.971Z,1.96
2019-03-01T01:13:02.426Z,1.97
2019-03-01T01:15:33.332Z,1.97
2019-03-01T01:18:04.272Z,1.96
2019-03-01T01:20:35.176Z,1.94
2019-03-01T01:23:06.110Z,1.93
2019-03-01T01:25:37.037Z,1.93
2019-03-01T01:28:07.976Z,1.88
2019-03-01T01:30:38.976Z,1.89
2019-03-01T01:33:09.951Z,1.84
2019-03-01T01:35:40.854Z,1.87
2019-03-01T01:38:11.800Z,1.83
2019-03-01T01:40:42.695Z,1.79
2019-03-01T01:43:14.442Z,1.77
2019-03-01T01:45:45.360Z,1.68
2019-03-01T01:48:16.348Z,1.68
2019-03-01T01:50:47.242Z,1.61
2019-03-01T01:53:18.984Z,1.62
2019-03-01T01:55:49.890Z,1.54
2019-03-01T01:58:21.712Z,1.50
2019-03-01T02:00:52.616Z,1.48
2019-03-01T02:03:32.332Z,1.46
2019-03-01T02:06:05.713Z,1.45
2019-03-01T02:08:36.648Z,1.41
2019-03-01T02:11:08.799Z,1.41
2019-03-01T02:13:39.736Z,1.38
2019-03-01T02:16:10.646Z,1.33
2019-03-01T02:18:41.596Z,1.33
2019-03-01T02:21:12.496Z,1.31
2019-03-01T02:23:43.503Z,1.29
2019-03-01T02:26:14.403Z,1.27
2019-03-01T02:28:45.326Z,1.24
2019-03-01T02:31:16.438Z,1.24
2019-03-01T02:33:48.189Z,1.22
2019-03-01T02:36:19.169Z,1.24
2019-03-01T02:38:50.093Z,1.22
2019-03-01T02:41:21.007Z,1.22
2019-03-01T02:43:52.031Z,1.22
2019-03-01T02:46:22.914Z,1.19
2019-03-01T02:48:53.850Z,1.18
2019-03-01T02:51:24.776Z,1.17
2019-03-01T02:53:55.701Z,1.16
2019-03-01T02:56:26.620Z,1.16
2019-03-01T02:58:57.537Z,1.18
2019-03-01T03:01:28.507Z,1.22
2019-03-01T03:03:59.616Z,1.24
2019-03-01T03:06:37.918Z,1.26
2019-03-01T03:09:08.947Z,1.26
2019-03-01T03:11:39.859Z,1.26
2019-03-01T03:14:10.803Z,1.27
2019-03-01T03:16:41.766Z,1.27
2019-03-01T03:19:13.692Z,1.26
2019-03-01T03:21:44.573Z,1.28
2019-03-01T03:24:15.506Z,1.30
2019-03-01T03:26:48.574Z,1.32
2019-03-01T03:29:19.117Z,1.32
2019-03-01T03:31:50.024Z,1.30
2019-03-01T03:34:20.992Z,1.29
2019-03-01T03:36:51.896Z,1.27
2019-03-01T03:39:22.823Z,1.25
2019-03-01T03:41:53.724Z,1.23
2019-03-01T03:44:24.680Z,1.22
2019-03-01T03:46:55.562Z,1.21
2019-03-01T03:49:27.414Z,1.24
2019-03-01T03:51:58.396Z,1.22
2019-03-01T03:54:29.317Z,1.22
2019-03-01T03:57:00.319Z,1.23
2019-03-01T03:59:31.254Z,1.24
2019-03-01T04:02:02.358Z,1.25
2019-03-01T04:04:33.333Z,1.24
2019-03-01T04:07:04.237Z,1.21
2019-03-01T04:09:35.235Z,1.19
2019-03-01T04:12:06.304Z,1.21
2019-03-01T04:14:37.248Z,1.21
2019-03-01T04:17:08.379Z,1.24
2019-03-01T04:19:40.202Z,1.23
2019-03-01T04:22:11.111Z,1.23
2019-03-01T04:24:42.109Z,1.21
2019-03-01T04:27:13.012Z,1.19
2019-03-01T04:29:44.770Z,1.20
2019-03-01T04:32:16.120Z,1.18
2019-03-01T04:34:48.988Z,1.18
2019-03-01T04:37:20.266Z,1.19
2019-03-01T04:39:51.388Z,1.19
2019-03-01T04:42:22.291Z,1.19
2019-03-01T04:44:54.717Z,1.20
2019-03-01T04:47:25.643Z,1.20
2019-03-01T04:49:56.676Z,1.20
2019-03-01T04:52:30.667Z,1.19
2019-03-01T04:55:02.530Z,1.17
2019-03-01T04:57:33.597Z,1.16
2019-03-01T05:00:07.528Z,1.18
2019-03-01T05:02:38.465Z,1.18
2019-03-01T05:05:10.807Z,1.18
2019-03-01T05:07:41.842Z,1.18
2019-03-01T05:10:14.323Z,1.17
2019-03-01T05:12:45.231Z,1.16
2019-03-01T05:15:18.070Z,1.15
2019-03-01T05:17:48.982Z,1.12
2019-03-01T05:20:19.938Z,1.11
2019-03-01T05:22:50.925Z,1.10
2019-03-01T05:25:21.867Z,1.09
2019-03-01T05:27:52.758Z,1.07
2019-03-01T05:30:23.712Z,1.07
2019-03-01T05:32:54.619Z,1.05
2019-03-01T05:35:26.617Z,1.05
2019-03-01T05:37:57.512Z,1.03
2019-03-01T05:40:28.431Z,0.99
2019-03-01T05:42:59.426Z,0.99
2019-03-01T05:45:31.175Z,0.99
2019-03-01T05:48:02.078Z,0.99
2019-03-01T05:50:34.287Z,0.99
2019-03-01T05:53:05.200Z,1.00
2019-03-01T05:55:36.929Z,1.00
2019-03-01T05:58:31.008Z,1.02
2019-03-01T06:01:13.653Z,1.04
2019-03-01T06:03:56.541Z,1.09
2019-03-01T06:06:34.204Z,1.19
2019-03-01T06:09:16.812Z,1.28
2019-03-01T06:11:56.690Z,1.33
2019-03-01T06:14:40.263Z,1.38
2019-03-01T06:17:16.906Z,1.43
2019-03-01T06:19:53.728Z,1.47
2019-03-01T06:22:37.490Z,1.47
2019-03-01T06:25:14.403Z,1.48
2019-03-01T06:27:57.058Z,1.48
2019-03-01T06:30:51.627Z,1.51
2019-03-01T06:33:35.306Z,1.55
2019-03-01T06:36:15.452Z,1.58
2019-03-01T06:39:03.212Z,1.61
2019-03-01T06:41:59.870Z,1.67
2019-03-01T06:44:42.888Z,1.74
2019-03-01T06:47:19.502Z,1.78
2019-03-01T06:49:52.158Z,1.83
2019-03-01T06:52:23.727Z,1.92
2019-03-01T06:54:54.844Z,1.96
2019-03-01T06:57:26.572Z,2.01
2019-03-01T06:59:57.652Z,2.09
2019-03-01T07:02:30.336Z,2.16
2019-03-01T07:05:01.368Z,2.23
2019-03-01T07:07:32.273Z,2.31
2019-03-01T07:10:04.134Z,2.35
2019-03-01T07:12:35.108Z,2.41
2019-03-01T07:15:08.801Z,2.47
2019-03-01T07:17:39.879Z,2.55
2019-03-01T07:20:12.654Z,2.63
2019-03-01T07:22:43.712Z,2.72
2019-03-01T07:25:14.708Z,2.78
2019-03-01T07:27:45.780Z,2.87
2019-03-01T07:30:16.789Z,2.97
2019-03-01T07:32:47.794Z,3.02
2019-03-01T07:35:18.784Z,3.14
2019-03-01T07:37:49.715Z,3.24
2019-03-01T07:40:21.561Z,3.39
2019-03-01T07:42:52.502Z,3.39
2019-03-01T07:45:23.549Z,3.59
2019-03-01T07:47:54.491Z,3.59
2019-03-01T07:50:25.464Z,3.68
2019-03-01T07:52:56.504Z,3.75
2019-03-01T07:55:28.369Z,3.84
2019-03-01T07:58:01.044Z,3.96
2019-03-01T08:00:32.255Z,4.06
2019-03-01T08:03:03.310Z,4.23
2019-03-01T08:05:35.538Z,4.41
2019-03-01T08:08:07.064Z,4.60
2019-03-01T08:10:38.850Z,4.82
2019-03-01T08:13:09.754Z,5.07
2019-03-01T08:15:44.760Z,5.31
2019-03-01T08:18:13.398Z,5.53
2019-03-01T08:20:44.332Z,5.73
2019-03-01T08:23:15.340Z,5.88
2019-03-01T08:25:46.399Z,6.16
2019-03-01T08:28:18.444Z,6.40
2019-03-01T08:30:50.039Z,6.45
2019-03-01T08:33:20.961Z,6.53
2019-03-01T08:35:52.724Z,6.64
2019-03-01T08:38:25.486Z,6.76
2019-03-01T08:40:56.287Z,6.50
2019-03-01T08:43:27.194Z,6.34
2019-03-01T08:45:58.130Z,6.35
2019-03-01T08:48:30.516Z,6.14
2019-03-01T08:51:04.223Z,6.24
2019-03-01T08:53:35.099Z,5.98
2019-03-01T08:56:06.916Z,5.74
2019-03-01T08:58:41.494Z,5.66
2019-03-01T09:01:14.272Z,5.30
2019-03-01T09:03:48.092Z,5.31
2019-03-01T09:06:19.050Z,5.28
2019-03-01T09:08:50.041Z,5.06
2019-03-01T09:11:21.106Z,4.97
2019-03-01T09:13:52.199Z,4.88
2019-03-01T09:16:23.125Z,4.95
2019-03-01T09:18:54.012Z,4.81
2019-03-01T09:21:24.933Z,4.81
2019-03-01T09:23:55.820Z,4.92
2019-03-01T09:26:26.751Z,4.88
2019-03-01T09:28:57.641Z,5.04
2019-03-01T09:31:28.564Z,4.97
2019-03-01T09:33:59.564Z,4.90
2019-03-01T09:36:32.246Z,4.79
2019-03-01T09:39:04.788Z,4.64
2019-03-01T09:41:40.358Z,4.62
2019-03-01T09:44:09.234Z,4.56
2019-03-01T09:46:40.266Z,4.50
2019-03-01T09:49:11.155Z,4.52
2019-03-01T09:51:43.668Z,4.81
2019-03-01T09:54:14.667Z,4.78
2019-03-01T09:56:45.610Z,4.70
2019-03-01T09:59:17.483Z,4.74
2019-03-01T10:01:48.797Z,4.60
2019-03-01T10:04:19.681Z,4.80
2019-03-01T10:06:50.623Z,4.77
2019-03-01T10:09:21.666Z,4.75
2019-03-01T10:11:53.017Z,4.58
2019-03-01T10:14:24.068Z,4.74
2019-03-01T10:16:55.119Z,4.86
2019-03-01T10:19:26.025Z,4.86
2019-03-01T10:21:57.069Z,4.95
2019-03-01T10:24:28.094Z,4.75
2019-03-01T10:26:59.909Z,4.81
2019-03-01T10:29:30.828Z,4.78
2019-03-01T10:32:01.827Z,4.83
2019-03-01T10:34:32.824Z,4.69
2019-03-01T10:37:03.791Z,4.43
2019-03-01T10:39:34.770Z,4.50
2019-03-01T10:42:06.749Z,4.37
2019-03-01T10:44:37.644Z,4.42
2019-03-01T10:47:08.863Z,4.45
2019-03-01T10:49:39.782Z,4.55
2019-03-01T10:52:10.724Z,4.69
2019-03-01T10:54:41.664Z,4.86
2019-03-01T10:57:12.647Z,5.02
2019-03-01T10:59:43.564Z,4.86
2019-03-01T11:02:14.584Z,4.96
2019-03-01T11:04:45.522Z,4.96
2019-03-01T11:07:16.736Z,4.74
2019-03-01T11:09:47.666Z,4.63
2019-03-01T11:12:18.751Z,4.59
2019-03-01T11:14:49.684Z,4.59
2019-03-01T11:17:20.622Z,4.56
2019-03-01T11:19:51.507Z,4.56
2019-03-01T11:22:22.429Z,4.66
2019-03-01T11:24:53.332Z,4.60
2019-03-01T11:27:25.066Z,4.48
2019-03-01T11:29:57.534Z,4.43
2019-03-01T11:32:28.470Z,3.88
2019-03-01T11:34:59.367Z,3.58
2019-03-01T11:37:30.375Z,3.73
2019-03-01T11:40:01.265Z,3.61
2019-03-01T11:42:33.086Z,3.61
2019-03-01T11:45:05.944Z,3.66
2019-03-01T11:47:36.927Z,3.75
2019-03-01T11:50:13.538Z,3.99
2019-03-01T11:52:44.450Z,4.24
2019-03-01T11:55:15.745Z,4.38
2019-03-01T11:57:47.599Z,4.30
2019-03-01T12:00:24.620Z,4.02
2019-03-01T12:02:55.635Z,3.55
2019-03-01T12:05:27.983Z,3.79
2019-03-01T12:07:58.918Z,3.89
2019-03-01T12:10:31.189Z,3.65
2019-03-01T12:13:06.232Z,3.87
2019-03-01T12:15:37.233Z,3.87
2019-03-01T12:18:08.220Z,4.02
2019-03-01T12:20:39.404Z,4.16
2019-03-01T12:23:10.322Z,4.05
2019-03-01T12:25:41.216Z,4.03
2019-03-01T12:28:12.145Z,4.01
2019-03-01T12:30:43.047Z,4.11
2019-03-01T12:33:13.969Z,4.09
2019-03-01T12:35:45.055Z,4.12
2019-03-01T12:38:15.973Z,4.09
2019-03-01T12:40:46.887Z,4.12
2019-03-01T12:43:18.881Z,3.95
2019-03-01T12:45:49.862Z,4.05
2019-03-01T12:48:20.917Z,4.21
2019-03-01T12:50:51.862Z,4.23
2019-03-01T12:53:23.676Z,4.36
2019-03-01T12:55:54.856Z,4.28
2019-03-01T12:58:27.458Z,4.23
2019-03-01T13:01:00.477Z,4.11
2019-03-01T13:03:31.437Z,4.05
2019-03-01T13:06:03.846Z,4.18
2019-03-01T13:08:34.992Z,4.11
2019-03-01T13:11:06.055Z,4.30
2019-03-01T13:13:39.374Z,4.44
2019-03-01T13:16:10.435Z,4.49
2019-03-01T13:18:41.493Z,4.49
2019-03-01T13:21:13.614Z,4.21
2019-03-01T13:23:45.500Z,4.04
2019-03-01T13:26:16.655Z,4.05
2019-03-01T13:28:49.075Z,4.01
2019-03-01T13:31:20.005Z,3.89
2019-03-01T13:33:50.970Z,3.87
2019-03-01T13:36:21.953Z,3.74
2019-03-01T13:38:52.913Z,3.93
2019-03-01T13:41:25.301Z,3.97
2019-03-01T13:44:00.304Z,3.98
2019-03-01T13:46:33.264Z,3.96
2019-03-01T13:49:02.913Z,3.88
2019-03-01T13:51:33.884Z,3.66
2019-03-01T13:54:05.725Z,3.80
2019-03-01T13:56:37.647Z,3.87
2019-03-01T13:59:08.768Z,4.01
2019-03-01T14:01:41.703Z,4.04
2019-03-01T14:04:12.745Z,4.07
2019-03-01T14:06:43.699Z,4.12
2019-03-01T14:09:15.128Z,4.19
2019-03-01T14:11:46.172Z,4.24
2019-03-01T14:14:18.155Z,4.27
2019-03-01T14:16:49.173Z,4.17
2019-03-01T14:19:20.131Z,4.30
2019-03-01T14:21:51.117Z,4.37
2019-03-01T14:24:22.070Z,4.50
2019-03-01T14:26:53.853Z,4.11
2019-03-01T14:29:26.691Z,3.99
2019-03-01T14:31:57.832Z,3.95
2019-03-01T14:34:28.768Z,3.79
2019-03-01T14:36:59.726Z,3.57
2019-03-01T14:39:30.724Z,3.58
2019-03-01T14:42:01.697Z,3.19
2019-03-01T14:44:33.840Z,3.33
2019-03-01T14:47:05.747Z,3.22
2019-03-01T14:49:36.693Z,3.13
2019-03-01T14:52:07.598Z,3.09
2019-03-01T14:54:38.546Z,3.20
2019-03-01T14:57:11.155Z,3.31
2019-03-01T15:00:01.587Z,3.34
2019-03-01T15:02:42.466Z,3.32
2019-03-01T15:05:19.369Z,3.31
2019-03-01T15:07:46.171Z,3.31
2019-03-01T15:10:17.600Z,3.26
2019-03-01T15:12:48.558Z,3.09
2019-03-01T15:15:22.978Z,2.91
2019-03-01T15:17:53.841Z,2.90
2019-03-01T15:20:24.939Z,2.91
2019-03-01T15:22:56.053Z,2.88
2019-03-01T15:25:27.005Z,2.58
2019-03-01T15:27:57.996Z,2.63
2019-03-01T15:30:29.135Z,2.55
2019-03-01T15:33:00.159Z,2.54
2019-03-01T15:35:31.213Z,2.54
2019-03-01T15:38:02.228Z,2.46
2019-03-01T15:40:33.173Z,2.48
2019-03-01T15:43:04.125Z,2.28
2019-03-01T15:45:36.676Z,2.34
2019-03-01T15:48:08.147Z,2.30
2019-03-01T15:50:39.419Z,2.30
2019-03-01T15:53:10.402Z,2.30
2019-03-01T15:55:41.406Z,2.31
2019-03-01T15:58:12.378Z,2.15
2019-03-01T16:00:43.420Z,2.16
2019-03-01T16:03:16.048Z,2.13
2019-03-01T16:05:47.055Z,2.12
2019-03-01T16:08:18.171Z,2.19
2019-03-01T16:10:49.114Z,2.24
2019-03-01T16:13:20.070Z,2.29
2019-03-01T16:15:51.974Z,2.29
2019-03-01T16:18:22.959Z,2.35
2019-03-01T16:20:53.943Z,2.37
2019-03-01T16:23:27.470Z,2.34
2019-03-01T16:25:57.821Z,2.25
2019-03-01T16:28:31.172Z,2.27
2019-03-01T16:31:02.343Z,2.30
2019-03-01T16:33:33.312Z,2.31
2019-03-01T16:36:06.005Z,2.26
2019-03-01T16:38:40.970Z,2.25
2019-03-01T16:41:11.503Z,2.25
2019-03-01T16:43:42.459Z,2.24
2019-03-01T16:46:15.820Z,2.22
2019-03-01T16:48:48.715Z,2.22
2019-03-01T16:51:19.744Z,2.26
2019-03-01T16:53:50.672Z,2.28
2019-03-01T16:56:21.643Z,2.24
2019-03-01T16:58:52.585Z,2.25
2019-03-01T17:01:25.992Z,2.29
2019-03-01T17:03:58.687Z,2.30
2019-03-01T17:06:29.646Z,2.22
2019-03-01T17:09:00.673Z,2.27
2019-03-01T17:11:31.610Z,2.26
2019-03-01T17:14:03.346Z,2.24
2019-03-01T17:16:35.655Z,2.29
2019-03-01T17:19:06.578Z,2.24
2019-03-01T17:21:37.533Z,2.22
2019-03-01T17:24:08.448Z,2.22
2019-03-01T17:26:39.422Z,2.30
2019-03-01T17:29:10.350Z,2.35
2019-03-01T17:31:42.154Z,2.36
2019-03-01T17:34:13.064Z,2.29
2019-03-01T17:36:44.001Z,2.36
2019-03-01T17:39:16.625Z,2.39
2019-03-01T17:41:48.458Z,2.43
2019-03-01T17:44:19.558Z,2.49
2019-03-01T17:46:51.368Z,2.53
2019-03-01T17:49:22.280Z,2.50
2019-03-01T17:54:57.635Z,2.38
2019-03-01T17:57:32.952Z,2.37
2019-03-01T18:00:02.579Z,2.28
2019-03-01T18:02:34.398Z,2.21
2019-03-01T18:05:07.751Z,2.25
2019-03-01T18:07:38.694Z,2.30
2019-03-01T18:10:12.178Z,2.32
2019-03-01T18:12:43.248Z,2.28
2019-03-01T18:15:16.174Z,2.25
2019-03-01T18:17:48.052Z,2.25
2019-03-01T18:20:18.993Z,2.20
2019-03-01T18:22:49.963Z,2.16
2019-03-01T18:25:22.852Z,2.04
2019-03-01T18:27:53.912Z,2.07
2019-03-01T18:30:30.299Z,2.05
2019-03-01T18:33:02.097Z,2.05
2019-03-01T18:35:32.993Z,1.95
2019-03-01T18:38:03.919Z,2.00
2019-03-01T18:40:34.825Z,2.00
2019-03-01T18:43:05.754Z,2.12
2019-03-01T18:45:38.517Z,2.04
2019-03-01T18:48:10.267Z,2.11
2019-03-01T18:50:41.176Z,2.16
2019-03-01T18:53:12.184Z,2.17
2019-03-01T18:55:43.087Z,2.17
2019-03-01T18:58:14.955Z,2.19
2019-03-01T19:00:53.625Z,2.28
2019-03-01T19:03:24.869Z,2.28
2019-03-01T19:05:57.468Z,2.27
2019-03-01T19:08:28.383Z,2.27
2019-03-01T19:11:02.841Z,2.22
2019-03-01T19:13:32.299Z,2.20
2019-03-01T19:16:03.211Z,2.25
2019-03-01T19:18:35.053Z,2.25
2019-03-01T19:21:05.981Z,2.34
2019-03-01T19:23:36.905Z,2.36
2019-03-01T19:26:08.179Z,2.34
2019-03-01T19:28:39.114Z,2.36
2019-03-01T19:31:10.017Z,2.36
2019-03-01T19:33:41.854Z,2.46
2019-03-01T19:36:12.849Z,2.51
2019-03-01T19:38:43.778Z,2.55
2019-03-01T19:41:14.686Z,2.62
2019-03-01T19:43:53.835Z,2.62
2019-03-01T19:46:18.280Z,2.64
2019-03-01T19:48:50.950Z,2.64
2019-03-01T19:51:21.844Z,2.66
2019-03-01T19:53:53.620Z,2.72
2019-03-01T19:56:25.958Z,2.74
2019-03-01T19:58:57.032Z,2.71
2019-03-01T20:01:27.942Z,2.74
2019-03-01T20:03:59.855Z,2.76
2019-03-01T20:06:31.567Z,2.73
2019-03-01T20:09:04.504Z,2.79
2019-03-01T20:11:35.166Z,2.81
2019-03-01T20:14:06.108Z,2.81
2019-03-01T20:16:37.008Z,2.77
2019-03-01T20:19:09.763Z,2.80
2019-03-01T20:21:41.363Z,2.82
2019-03-01T20:24:13.309Z,2.80
2019-03-01T20:26:44.214Z,2.76
2019-03-01T20:29:15.144Z,2.71
2019-03-01T20:31:46.056Z,2.68
2019-03-01T20:34:16.994Z,2.56
2019-03-01T20:36:49.661Z,2.56
2019-03-01T20:39:21.387Z,2.53
2019-03-01T20:41:52.315Z,2.53
2019-03-01T20:44:23.316Z,2.59
2019-03-01T20:46:54.233Z,2.61
2019-03-01T20:49:25.194Z,2.65
2019-03-01T20:51:58.697Z,2.67
2019-03-01T20:54:28.729Z,2.70
2019-03-01T20:56:59.635Z,2.70
2019-03-01T20:59:30.558Z,2.70
2019-03-01T21:02:01.478Z,2.70
2019-03-01T21:04:32.448Z,2.70
2019-03-01T21:07:04.300Z,2.70
2019-03-01T21:09:37.762Z,2.70
2019-03-01T21:12:07.940Z,2.66
2019-03-01T21:14:38.887Z,2.68
2019-03-01T21:17:09.794Z,2.68
2019-03-01T21:19:43.798Z,2.69
2019-03-01T21:22:14.316Z,2.69
2019-03-01T21:24:45.279Z,2.69
2019-03-01T21:27:16.168Z,2.70
2019-03-01T21:29:47.526Z,2.67
2019-03-01T21:32:19.377Z,2.67
2019-03-01T21:34:51.956Z,2.65
2019-03-01T21:37:22.862Z,2.61
2019-03-01T21:45:48.536Z,2.63
2019-03-01T21:48:22.023Z,2.59
2019-03-01T21:50:53.112Z,2.59
2019-03-01T21:53:25.331Z,2.60
2019-03-01T21:55:56.313Z,2.61
2019-03-01T21:58:27.212Z,2.61
2019-03-01T22:07:54.342Z,2.60
2019-03-01T22:10:25.243Z,2.50
2019-03-01T22:12:56.850Z,2.51
2019-03-01T22:15:29.456Z,2.50
2019-03-01T22:18:00.386Z,2.47
2019-03-01T22:20:31.312Z,2.44
2019-03-01T22:23:03.114Z,2.33
2019-03-01T22:25:34.519Z,2.30
2019-03-01T22:28:06.640Z,2.30
2019-03-01T22:30:37.548Z,2.22
2019-03-01T22:33:09.458Z,2.11
2019-03-01T22:35:43.273Z,2.00
2019-03-01T22:38:13.026Z,1.78
2019-03-01T22:40:43.940Z,1.78
2019-03-01T22:43:14.869Z,1.70
2019-03-01T22:45:48.880Z,1.48
2019-03-01T22:48:18.413Z,1.48
2019-03-01T22:50:49.317Z,1.33
2019-03-01T22:53:20.294Z,1.29
2019-03-01T22:55:51.198Z,1.29
2019-03-01T22:58:22.136Z,1.22
2019-03-01T23:00:59.904Z,1.14
2019-03-01T23:03:30.839Z,1.07
2019-03-01T23:06:01.805Z,0.94
2019-03-01T23:08:35.550Z,0.93
2019-03-01T23:11:05.356Z,0.87
2019-03-01T23:13:36.272Z,0.77
2019-03-01T23:16:07.695Z,0.73
2019-03-01T23:18:40.500Z,0.66
2019-03-01T23:21:11.231Z,0.59
2019-03-01T23:23:42.264Z,0.52
2019-03-01T23:26:13.174Z,0.47
2019-03-01T23:28:44.654Z,0.41
2019-03-01T23:31:15.610Z,0.35
2019-03-01T23:33:46.581Z,0.30
2019-03-01T23:36:17.491Z,0.25
2019-03-01T23:38:51.313Z,0.20
2019-03-01T23:41:22.293Z,0.16
2019-03-01T23:43:53.231Z,0.12
2019-03-01T23:46:25.693Z,0.07
2019-03-01T23:49:05.837Z,0.03
2019-03-01T23:51:29.370Z,-0.02
2019-03-01T23:54:00.340Z,-0.05
2019-03-01T23:56:31.252Z,-0.09
2019-03-01T23:59:02.183Z,-0.13
